Time;durP1;ratioP1;P1;durP2;ratioP2;P2;SDS_P1;SDS_P2;PMS_P1;PMS_P2;Temp;Humidity;BMP_temperature;BMP_pressure;BME280_temperature;BME280_humidity;BME280_pressure;Samples;Min_cycle;Max_cycle;Signal;HPM_P1;HPM_P2
2021/06/16 00:01:38;;;;;;;0.20;0.20;;;10.70;74.90;;;;;;5072720;28;20464;-67
2021/06/16 00:04:05;;;;;;;0.20;0.20;;;10.70;74.90;;;;;;5072247;28;20025;-67
2021/06/16 00:06:32;;;;;;;1.05;0.28;;;10.70;75.30;;;;;;5072242;28;20050;-67
2021/06/16 00:08:58;;;;;;;1.20;0.30;;;10.70;75.30;;;;;;5071918;28;20074;-67
2021/06/16 00:11:24;;;;;;;0.30;0.30;;;10.60;75.60;;;;;;5072185;28;20414;-66
2021/06/16 00:13:50;;;;;;;0.30;0.30;;;10.60;75.80;;;;;;5072110;28;20029;-67
2021/06/16 00:16:16;;;;;;;0.85;0.32;;;10.60;76.00;;;;;;5072307;28;20045;-67
2021/06/16 00:18:42;;;;;;;3.17;0.30;;;10.60;76.20;;;;;;5072217;28;20388;-67
2021/06/16 00:21:08;;;;;;;0.47;0.30;;;10.50;76.30;;;;;;5071936;28;20020;-67
2021/06/16 00:23:33;;;;;;;0.45;0.30;;;10.40;76.70;;;;;;5072097;28;20024;-67
2021/06/16 00:25:59;;;;;;;0.30;0.30;;;10.40;77.10;;;;;;5071959;28;20016;-67
2021/06/16 00:28:25;;;;;;;0.43;0.30;;;10.40;77.30;;;;;;5071876;28;20452;-67
2021/06/16 00:30:50;;;;;;;0.43;0.32;;;10.30;77.40;;;;;;5071912;28;20078;-67
2021/06/16 00:33:16;;;;;;;0.35;0.35;;;10.30;77.50;;;;;;5071848;28;20032;-67
2021/06/16 00:35:42;;;;;;;0.47;0.40;;;10.30;78.30;;;;;;5072016;28;20021;-67
2021/06/16 00:38:08;;;;;;;0.30;0.30;;;10.30;77.90;;;;;;5071699;28;20116;-67
2021/06/16 00:40:34;;;;;;;0.52;0.30;;;10.30;78.60;;;;;;5072152;28;20107;-66
2021/06/16 00:43:02;;;;;;;0.63;0.40;;;10.20;78.10;;;;;;5071584;28;20491;-67
2021/06/16 00:45:30;;;;;;;0.40;0.30;;;10.20;78.50;;;;;;5072189;28;20108;-66
2021/06/16 00:47:56;;;;;;;0.30;0.30;;;10.20;79.00;;;;;;5071646;28;20404;-67
2021/06/16 00:50:31;;;;;;;1.85;0.40;;;10.10;78.90;;;;;;5071874;28;20017;-67
2021/06/16 00:52:57;;;;;;;0.40;0.40;;;10.10;79.30;;;;;;5071963;28;20083;-67
2021/06/16 00:55:23;;;;;;;0.55;0.20;;;10.10;79.40;;;;;;5071810;28;20488;-67
2021/06/16 00:57:49;;;;;;;0.88;0.30;;;10.00;79.50;;;;;;5071541;28;20116;-67
2021/06/16 01:00:27;;;;;;;0.30;0.28;;;10.00;79.50;;;;;;5071633;28;20040;-67
2021/06/16 01:03:11;;;;;;;0.65;0.40;;;9.90;79.70;;;;;;5071974;28;20028;-67
2021/06/16 01:05:59;;;;;;;0.43;0.30;;;9.90;79.80;;;;;;5072075;28;20060;-67
2021/06/16 01:08:40;;;;;;;0.45;0.40;;;9.80;80.10;;;;;;5071208;28;20043;-66
2021/06/16 01:11:09;;;;;;;0.30;0.30;;;9.90;80.20;;;;;;5071540;28;20085;-67
2021/06/16 01:13:53;;;;;;;0.20;0.20;;;9.80;80.30;;;;;;5071606;28;20031;-67
2021/06/16 01:16:44;;;;;;;0.70;0.40;;;9.80;80.50;;;;;;5071761;28;20029;-66
2021/06/16 01:53:31;;;;;;;1.17;0.40;;;9.50;81.90;;;;;;5450495;23;20643;-68
2021/06/16 01:55:58;;;;;;;1.85;0.30;;;9.50;81.70;;;;;;5014937;28;20042;-68
2021/06/16 01:58:24;;;;;;;0.30;0.30;;;9.40;81.70;;;;;;5014911;28;20049;-69
2021/06/16 02:00:53;;;;;;;0.52;0.30;;;9.40;81.80;;;;;;4997290;28;20021;-69
2021/06/16 02:03:18;;;;;;;0.93;0.40;;;9.40;82.10;;;;;;5014777;28;20569;-69
2021/06/16 02:05:44;;;;;;;0.30;0.30;;;9.40;82.10;;;;;;5015064;28;20116;-69
2021/06/16 02:08:21;;;;;;;0.63;0.40;;;9.30;82.10;;;;;;5014759;28;20115;-68
2021/06/16 02:10:49;;;;;;;3.85;0.30;;;9.30;82.10;;;;;;4997136;28;20026;-69
2021/06/16 02:13:21;;;;;;;1.20;0.30;;;9.30;82.40;;;;;;5014693;28;20121;-69
2021/06/16 02:15:54;;;;;;;0.30;0.30;;;9.30;82.70;;;;;;5014640;28;20489;-69
2021/06/16 02:18:33;;;;;;;0.30;0.30;;;9.30;82.90;;;;;;5014823;28;20429;-69
2021/06/16 02:20:59;;;;;;;0.32;0.32;;;9.30;82.90;;;;;;5014437;28;20030;-69
2021/06/16 02:23:25;;;;;;;1.20;0.40;;;9.30;83.00;;;;;;5014434;28;20474;-69
2021/06/16 02:25:51;;;;;;;0.30;0.30;;;9.30;83.00;;;;;;5014608;28;20028;-69
2021/06/16 02:28:17;;;;;;;1.60;0.32;;;9.30;83.50;;;;;;5014435;28;20030;-69
2021/06/16 02:30:43;;;;;;;0.40;0.30;;;9.30;83.50;;;;;;5013892;28;20056;-69
2021/06/16 02:33:08;;;;;;;0.30;0.30;;;9.30;83.30;;;;;;5014332;28;20061;-70
2021/06/16 02:35:34;;;;;;;1.73;0.40;;;9.30;83.30;;;;;;5014629;28;20026;-70
2021/06/16 02:38:16;;;;;;;0.40;0.40;;;9.30;83.20;;;;;;5013987;28;20033;-70
2021/06/16 02:40:42;;;;;;;0.55;0.43;;;9.30;83.40;;;;;;5014193;28;20026;-70
2021/06/16 02:43:08;;;;;;;0.32;0.32;;;9.40;83.70;;;;;;4996554;28;20028;-70
2021/06/16 02:45:36;;;;;;;0.40;0.32;;;9.40;83.00;;;;;;5014232;28;20497;-70
2021/06/16 02:48:03;;;;;;;0.70;0.40;;;9.40;82.70;;;;;;5013828;28;20041;-70
2021/06/16 02:50:30;;;;;;;1.40;0.35;;;9.50;82.80;;;;;;4996481;28;20022;-70
2021/06/16 02:53:01;;;;;;;0.82;0.47;;;9.70;82.60;;;;;;4995914;28;20489;-70
2021/06/16 02:55:28;;;;;;;0.50;0.38;;;10.10;81.70;;;;;;5013841;28;20030;-70
2021/06/16 02:57:55;;;;;;;0.43;0.32;;;10.40;80.10;;;;;;4996084;28;20038;-70
2021/06/16 03:00:22;;;;;;;0.47;0.35;;;10.50;78.70;;;;;;5013890;28;20026;-70
2021/06/16 03:02:49;;;;;;;1.35;0.40;;;10.60;78.10;;;;;;5013698;28;20036;-70
2021/06/16 03:05:19;;;;;;;0.30;0.30;;;10.60;77.80;;;;;;4996092;28;20481;-70
2021/06/16 03:07:46;;;;;;;0.47;0.43;;;10.50;77.70;;;;;;5013571;28;20030;-70
2021/06/16 03:10:14;;;;;;;2.28;0.40;;;10.50;77.80;;;;;;5013908;28;20393;-70
2021/06/16 03:12:41;;;;;;;0.30;0.30;;;10.50;78.00;;;;;;5013449;28;20022;-70
2021/06/16 03:15:07;;;;;;;0.77;0.43;;;10.50;77.80;;;;;;4996263;28;20478;-70
2021/06/16 03:17:34;;;;;;;1.25;0.32;;;10.50;77.60;;;;;;5013460;28;20473;-70
2021/06/16 03:20:02;;;;;;;1.60;0.50;;;10.70;77.40;;;;;;5013350;28;20037;-70
2021/06/16 03:22:30;;;;;;;3.95;0.70;;;11.20;76.40;;;;;;5013731;28;20088;-70
2021/06/16 03:24:57;;;;;;;0.68;0.35;;;11.70;75.10;;;;;;5013404;28;20096;-70
2021/06/16 03:27:23;;;;;;;0.30;0.30;;;12.10;73.10;;;;;;5013468;28;20057;-70
2021/06/16 03:29:52;;;;;;;0.30;0.30;;;12.50;72.20;;;;;;5013045;28;20084;-70
2021/06/16 03:32:19;;;;;;;0.20;0.20;;;12.80;69.90;;;;;;5013332;28;20022;-70
2021/06/16 03:34:45;;;;;;;1.30;0.30;;;13.00;68.80;;;;;;5013079;28;20053;-70
2021/06/16 03:37:12;;;;;;;0.20;0.20;;;13.30;68.00;;;;;;5013224;28;20359;-70
2021/06/16 03:39:39;;;;;;;0.40;0.30;;;13.60;66.80;;;;;;5013394;28;20052;-70
2021/06/16 03:42:06;;;;;;;0.35;0.30;;;13.80;66.50;;;;;;5012758;28;20088;-70
2021/06/16 03:44:34;;;;;;;0.85;0.40;;;14.00;64.90;;;;;;5012850;28;20495;-70
2021/06/16 03:47:03;;;;;;;0.52;0.40;;;14.30;63.90;;;;;;5012878;28;20061;-70
2021/06/16 03:49:31;;;;;;;1.85;0.32;;;14.50;62.70;;;;;;5013180;28;20030;-70
2021/06/16 03:51:58;;;;;;;0.22;0.22;;;14.50;62.30;;;;;;5012676;28;20030;-70
2021/06/16 03:54:25;;;;;;;0.40;0.30;;;14.60;62.20;;;;;;5012623;28;20057;-70
2021/06/16 03:56:52;;;;;;;0.90;0.30;;;14.90;61.30;;;;;;5012928;28;20029;-70
2021/06/16 03:59:20;;;;;;;1.02;0.52;;;15.20;60.40;;;;;;4995017;28;20508;-70
2021/06/16 04:01:46;;;;;;;0.25;0.25;;;15.40;60.10;;;;;;5012701;28;20034;-70
2021/06/16 04:04:12;;;;;;;2.30;0.30;;;15.60;59.20;;;;;;5012632;28;20037;-70
2021/06/16 04:06:42;;;;;;;0.45;0.30;;;15.80;58.90;;;;;;4995126;28;20026;-68
2021/06/16 04:09:10;;;;;;;0.52;0.40;;;15.90;58.10;;;;;;5012500;28;20549;-68
2021/06/16 04:11:37;;;;;;;0.90;0.30;;;15.90;57.90;;;;;;5012643;28;20041;-68
2021/06/16 04:14:03;;;;;;;0.38;0.28;;;16.00;57.60;;;;;;5012367;28;20025;-68
2021/06/16 04:16:30;;;;;;;0.88;0.30;;;16.20;57.30;;;;;;5012822;28;20482;-68
2021/06/16 04:18:56;;;;;;;0.20;0.20;;;16.40;56.90;;;;;;5012493;28;20073;-69
2021/06/16 04:21:22;;;;;;;0.35;0.20;;;16.40;56.40;;;;;;5012477;28;20018;-69
2021/06/16 04:23:49;;;;;;;0.13;0.13;;;16.50;56.40;;;;;;5012167;28;20030;-69
2021/06/16 04:26:21;;;;;;;0.47;0.28;;;16.50;55.80;;;;;;5012680;28;20038;-69
2021/06/16 04:28:47;;;;;;;0.95;0.25;;;16.60;55.70;;;;;;5012409;28;20389;-69
2021/06/16 04:31:13;;;;;;;1.02;0.20;;;16.90;56.00;;;;;;5012306;28;20025;-69
2021/06/16 04:33:40;;;;;;;0.65;0.20;;;17.20;54.40;;;;;;5012179;28;20066;-69
2021/06/16 04:36:07;;;;;;;1.90;0.30;;;17.30;54.20;;;;;;5012429;28;20042;-69
2021/06/16 04:38:34;;;;;;;1.30;0.35;;;17.30;53.60;;;;;;5012099;28;20489;-69
2021/06/16 04:41:00;;;;;;;1.00;0.35;;;17.30;53.70;;;;;;5011990;28;20026;-69
2021/06/16 04:43:26;;;;;;;0.52;0.20;;;17.40;53.60;;;;;;5012004;28;20493;-69
2021/06/16 04:45:52;;;;;;;0.30;0.20;;;17.40;53.30;;;;;;5011981;28;20026;-69
2021/06/16 04:48:18;;;;;;;1.00;0.20;;;17.40;53.70;;;;;;5012346;28;20036;-69
2021/06/16 04:50:44;;;;;;;0.60;0.20;;;17.60;53.20;;;;;;5012058;28;20628;-69
2021/06/16 04:53:10;;;;;;;0.10;0.10;;;17.80;53.60;;;;;;5011685;28;20052;-70
2021/06/16 04:55:36;;;;;;;0.40;0.30;;;18.10;53.00;;;;;;5016112;28;20108;-70
2021/06/16 04:58:01;;;;;;;0.80;0.28;;;18.30;51.90;;;;;;5016176;28;20029;-69
2021/06/16 05:00:27;;;;;;;0.60;0.10;;;18.20;51.70;;;;;;5016253;28;20052;-69
2021/06/16 05:02:59;;;;;;;0.40;0.10;;;18.10;51.50;;;;;;5015922;28;20030;-69
2021/06/16 05:05:26;;;;;;;0.50;0.10;;;18.10;51.60;;;;;;5016208;28;20026;-69
2021/06/16 05:07:52;;;;;;;0.65;0.10;;;18.10;51.20;;;;;;5015934;28;20117;-70
2021/06/16 05:10:18;;;;;;;2.00;0.20;;;18.00;51.20;;;;;;5015883;28;20101;-69
2021/06/16 05:12:44;;;;;;;0.40;0.20;;;18.10;51.30;;;;;;5015713;28;20077;-69
2021/06/16 05:15:12;;;;;;;0.80;0.20;;;18.40;50.80;;;;;;5015804;28;20026;-69
2021/06/16 05:17:39;;;;;;;0.22;0.20;;;18.60;50.30;;;;;;5015642;28;20026;-70
2021/06/16 05:20:07;;;;;;;0.65;0.20;;;18.70;50.40;;;;;;5015654;28;20034;-69
2021/06/16 05:22:34;;;;;;;3.53;0.20;;;18.80;50.30;;;;;;5015603;28;20014;-70
2021/06/16 05:25:01;;;;;;;2.45;0.28;;;18.40;48.80;;;;;;5015413;28;20031;-69
2021/06/16 05:27:28;;;;;;;0.65;0.20;;;18.20;49.70;;;;;;4998025;28;20030;-70
2021/06/16 05:29:54;;;;;;;1.35;0.20;;;17.90;49.60;;;;;;5015328;28;20488;-70
2021/06/16 05:32:20;;;;;;;1.25;0.30;;;17.80;50.10;;;;;;5015703;28;20392;-70
2021/06/16 05:34:46;;;;;;;0.75;0.20;;;17.80;50.80;;;;;;5015308;28;20036;-69
2021/06/16 05:37:13;;;;;;;2.72;0.20;;;17.50;50.60;;;;;;5015615;28;20022;-69
2021/06/16 05:39:39;;;;;;;0.90;0.38;;;17.30;51.30;;;;;;5015301;28;20034;-70
2021/06/16 05:42:05;;;;;;;2.83;0.25;;;16.90;50.60;;;;;;5015223;28;20034;-70
2021/06/16 05:44:31;;;;;;;0.43;0.22;;;16.70;51.50;;;;;;5015292;28;20028;-70
2021/06/16 05:46:56;;;;;;;0.43;0.20;;;16.80;51.50;;;;;;5015096;28;20022;-69
2021/06/16 05:49:22;;;;;;;0.10;0.10;;;17.00;50.70;;;;;;5015071;28;20026;-69
2021/06/16 05:51:48;;;;;;;0.22;0.10;;;17.00;50.50;;;;;;5015133;28;20025;-69
2021/06/16 05:54:13;;;;;;;0.80;0.22;;;17.10;49.30;;;;;;5014633;28;20100;-70
2021/06/16 05:56:41;;;;;;;0.25;0.20;;;17.40;49.70;;;;;;5014991;28;20494;-70
2021/06/16 05:59:07;;;;;;;2.63;0.30;;;17.40;49.20;;;;;;5014705;28;20130;-69
2021/06/16 06:01:34;;;;;;;0.40;0.17;;;17.40;48.10;;;;;;5014862;28;20414;-69
2021/06/16 06:04:05;;;;;;;0.40;0.20;;;17.10;48.20;;;;;;5014569;28;20481;-69
2021/06/16 06:06:32;;;;;;;0.35;0.22;;;16.90;48.40;;;;;;4996565;28;20466;-69
2021/06/16 06:08:58;;;;;;;0.43;0.17;;;16.60;48.20;;;;;;5014559;28;20062;-69
2021/06/16 06:11:24;;;;;;;1.75;0.20;;;16.30;48.90;;;;;;5014782;28;20053;-69
2021/06/16 06:13:50;;;;;;;1.08;0.30;;;16.00;48.90;;;;;;4997632;28;20029;-69
2021/06/16 06:16:16;;;;;;;1.35;0.40;;;16.00;49.20;;;;;;5014776;28;20026;-69
2021/06/16 06:18:42;;;;;;;0.20;0.20;;;15.70;49.30;;;;;;5014990;28;20042;-69
2021/06/16 06:21:08;;;;;;;0.20;0.20;;;15.70;50.40;;;;;;5014489;28;20022;-69
2021/06/16 06:23:35;;;;;;;1.98;0.20;;;15.70;50.10;;;;;;5014725;28;20129;-69
2021/06/16 06:26:00;;;;;;;0.77;0.30;;;15.70;50.30;;;;;;5014530;28;20030;-69
2021/06/16 06:28:26;;;;;;;1.42;0.30;;;15.80;50.60;;;;;;5014359;28;20470;-69
2021/06/16 06:30:52;;;;;;;0.30;0.30;;;15.90;50.70;;;;;;5014500;28;20022;-69
2021/06/16 06:33:18;;;;;;;0.20;0.20;;;16.20;50.40;;;;;;4996995;28;20474;-69
2021/06/16 06:35:43;;;;;;;0.45;0.20;;;16.40;50.60;;;;;;4996682;28;20026;-69
2021/06/16 06:38:11;;;;;;;0.40;0.30;;;16.50;49.90;;;;;;5014033;28;20045;-69
2021/06/16 06:40:37;;;;;;;1.48;0.40;;;16.20;49.50;;;;;;5014083;28;20022;-69
2021/06/16 06:43:03;;;;;;;0.77;0.20;;;16.00;50.00;;;;;;5013976;28;20437;-69
2021/06/16 06:45:29;;;;;;;0.73;0.30;;;15.80;50.20;;;;;;4996491;28;20022;-69
2021/06/16 06:47:55;;;;;;;3.20;0.38;;;15.70;51.50;;;;;;5014216;28;20351;-69
2021/06/16 06:50:21;;;;;;;0.35;0.30;;;15.70;51.40;;;;;;4996455;28;20382;-69
2021/06/16 06:52:48;;;;;;;0.25;0.25;;;15.50;50.70;;;;;;5013612;28;20038;-69
2021/06/16 06:55:15;;;;;;;3.05;0.40;;;15.20;51.10;;;;;;5013663;28;20416;-70
2021/06/16 06:57:42;;;;;;;0.73;0.30;;;15.10;51.80;;;;;;5013786;28;20068;-70
2021/06/16 07:00:09;;;;;;;1.35;0.40;;;14.90;51.90;;;;;;5014193;28;20026;-70
2021/06/16 07:02:35;;;;;;;1.02;0.50;;;14.80;52.70;;;;;;5013711;28;20061;-70
2021/06/16 07:05:00;;;;;;;3.30;0.50;;;14.90;53.40;;;;;;5013653;28;20075;-70
2021/06/16 07:07:26;;;;;;;0.75;0.30;;;14.70;53.00;;;;;;5013742;28;20022;-70
2021/06/16 07:09:52;;;;;;;1.05;0.20;;;14.60;53.50;;;;;;5013591;28;20528;-70
2021/06/16 07:12:18;;;;;;;1.27;0.20;;;14.50;53.70;;;;;;5013463;28;20014;-70
2021/06/16 07:14:44;;;;;;;1.98;0.50;;;14.50;53.40;;;;;;5013597;28;20038;-70
2021/06/16 07:17:10;;;;;;;1.25;0.40;;;14.40;53.40;;;;;;5012696;28;20104;-70
2021/06/16 07:19:36;;;;;;;0.47;0.30;;;14.50;53.70;;;;;;5013395;28;20438;-70
2021/06/16 07:22:03;;;;;;;1.45;0.30;;;14.70;54.40;;;;;;5013466;28;20029;-70
2021/06/16 07:24:29;;;;;;;0.77;0.30;;;14.80;53.90;;;;;;5013533;28;20030;-70
2021/06/16 07:26:55;;;;;;;0.52;0.30;;;14.80;53.60;;;;;;5013368;28;20103;-70
2021/06/16 07:29:22;;;;;;;0.80;0.30;;;14.80;53.40;;;;;;5013152;28;20104;-70
2021/06/16 07:31:48;;;;;;;3.22;0.20;;;14.80;53.30;;;;;;5013208;28;20030;-70
2021/06/16 07:34:14;;;;;;;0.73;0.30;;;14.70;53.40;;;;;;5013286;28;20041;-70
2021/06/16 07:36:40;;;;;;;2.42;0.38;;;14.60;53.80;;;;;;5013181;28;20026;-70
2021/06/16 07:39:06;;;;;;;2.78;0.22;;;14.60;54.20;;;;;;5012731;28;20048;-70
2021/06/16 07:41:32;;;;;;;3.35;0.30;;;14.50;53.40;;;;;;5013082;28;20505;-70
2021/06/16 07:43:58;;;;;;;1.58;0.30;;;14.40;53.60;;;;;;5012974;28;20029;-70
2021/06/16 07:46:24;;;;;;;0.55;0.30;;;14.30;53.70;;;;;;5013035;28;20034;-70
2021/06/16 07:48:50;;;;;;;1.02;0.40;;;14.30;54.40;;;;;;5013220;28;20421;-70
2021/06/16 07:51:20;;;;;;;0.40;0.25;;;14.40;54.80;;;;;;5012702;28;20021;-70
2021/06/16 07:53:46;;;;;;;1.27;0.30;;;14.50;55.10;;;;;;5012672;28;20076;-70
2021/06/16 07:56:12;;;;;;;0.50;0.35;;;14.60;54.70;;;;;;5012571;28;20029;-70
2021/06/16 07:58:38;;;;;;;1.98;0.30;;;14.50;53.60;;;;;;5012713;28;20122;-70
2021/06/16 08:01:04;;;;;;;1.38;0.25;;;14.50;53.70;;;;;;4994902;28;20042;-70
2021/06/16 08:03:29;;;;;;;0.90;0.30;;;14.60;54.40;;;;;;5012689;28;20021;-70
2021/06/16 08:05:55;;;;;;;2.17;0.45;;;14.70;54.70;;;;;;5012453;28;20026;-70
2021/06/16 08:08:22;;;;;;;5.65;0.50;;;14.80;54.70;;;;;;5012655;28;20056;-70
2021/06/16 08:10:48;;;;;;;1.13;0.35;;;14.90;55.10;;;;;;5012490;28;20053;-70
2021/06/16 08:13:13;;;;;;;0.50;0.13;;;14.90;54.20;;;;;;4994796;28;20054;-70
2021/06/16 08:15:39;;;;;;;0.35;0.20;;;14.90;53.70;;;;;;5012433;28;20442;-69
2021/06/16 08:18:06;;;;;;;3.15;0.30;;;14.80;53.40;;;;;;5012321;28;20038;-69
2021/06/16 08:20:32;;;;;;;0.63;0.30;;;14.70;53.40;;;;;;5012392;28;20492;-69
2021/06/16 08:22:58;;;;;;;2.95;0.30;;;14.60;53.70;;;;;;4994825;28;20034;-69
2021/06/16 08:25:24;;;;;;;0.57;0.30;;;14.70;53.30;;;;;;5012256;28;20249;-69
2021/06/16 08:27:50;;;;;;;2.53;0.40;;;14.70;53.50;;;;;;5012273;28;20028;-69
2021/06/16 08:30:17;;;;;;;3.90;1.45;;;14.70;52.60;;;;;;5011779;28;20037;-68
2021/06/16 08:32:44;;;;;;;0.88;0.30;;;14.60;53.40;;;;;;5012207;28;20270;-69
2021/06/16 08:35:10;;;;;;;0.75;0.20;;;14.60;53.60;;;;;;5012586;28;20108;-69
2021/06/16 08:37:36;;;;;;;2.17;0.30;;;14.60;53.60;;;;;;5012170;28;20029;-69
2021/06/16 08:40:05;;;;;;;0.85;0.40;;;14.60;53.70;;;;;;5011940;28;20037;-69
2021/06/16 08:42:31;;;;;;;0.80;0.20;;;14.50;53.90;;;;;;5011989;28;20030;-69
2021/06/16 08:44:57;;;;;;;1.17;0.40;;;14.50;54.20;;;;;;5012099;28;20037;-68
2021/06/16 08:47:25;;;;;;;0.28;0.28;;;14.50;53.90;;;;;;5012308;28;20105;-69
2021/06/16 08:49:51;;;;;;;0.60;0.22;;;14.40;54.30;;;;;;4994498;28;20081;-69
2021/06/16 08:52:18;;;;;;;0.30;0.30;;;14.40;54.80;;;;;;5011870;28;20083;-69
2021/06/16 08:54:44;;;;;;;0.47;0.25;;;14.40;54.80;;;;;;4994435;28;20477;-69
2021/06/16 08:57:10;;;;;;;0.70;0.20;;;14.50;55.40;;;;;;5011949;28;20387;-69
2021/06/16 08:59:36;;;;;;;1.05;0.20;;;14.60;55.00;;;;;;5011860;28;20030;-69
2021/06/16 09:02:03;;;;;;;0.20;0.20;;;14.60;54.40;;;;;;5011859;28;20029;-69
2021/06/16 09:04:44;;;;;;;3.70;0.30;;;14.60;54.20;;;;;;5011819;28;20030;-69
2021/06/16 09:07:16;;;;;;;0.90;0.30;;;14.60;54.70;;;;;;5011878;28;20026;-69
2021/06/16 09:09:42;;;;;;;0.30;0.30;;;14.70;55.30;;;;;;5011866;28;20042;-69
2021/06/16 09:12:09;;;;;;;2.08;0.30;;;14.80;55.40;;;;;;5011763;28;20049;-69
2021/06/16 09:14:35;;;;;;;0.40;0.20;;;14.90;55.00;;;;;;5011962;28;20105;-69
2021/06/16 09:17:02;;;;;;;1.75;0.32;;;15.00;54.80;;;;;;5011846;28;20114;-69
2021/06/16 09:19:36;;;;;;;3.10;0.35;;;15.10;55.20;;;;;;5011657;28;20038;-69
2021/06/16 09:22:07;;;;;;;2.35;0.40;;;15.10;55.50;;;;;;5011964;28;20068;-69
2021/06/16 09:24:50;;;;;;;0.10;0.10;;;15.10;54.60;;;;;;4994133;28;20037;-69
2021/06/16 09:27:45;;;;;;;1.73;0.20;;;15.20;54.60;;;;;;5011930;28;20419;-69
2021/06/16 09:30:23;;;;;;;0.65;0.20;;;15.20;54.30;;;;;;5011504;28;20421;-69
2021/06/16 09:32:53;;;;;;;0.28;0.28;;;15.30;54.30;;;;;;5011912;28;20034;-69
2021/06/16 09:35:20;;;;;;;1.17;0.15;;;15.30;53.80;;;;;;5011848;28;20029;-69
2021/06/16 09:37:45;;;;;;;0.63;0.30;;;15.40;54.90;;;;;;5011570;28;20038;-69
2021/06/16 09:40:12;;;;;;;0.80;0.20;;;15.40;54.00;;;;;;5011488;28;20068;-69
2021/06/16 09:42:38;;;;;;;2.33;0.30;;;15.40;54.20;;;;;;4997482;28;20117;-71
2021/06/16 09:45:04;;;;;;;0.30;0.30;;;15.40;53.70;;;;;;4997402;28;20486;-69
2021/06/16 09:47:30;;;;;;;0.20;0.20;;;15.40;53.10;;;;;;5015340;28;20385;-69
2021/06/16 09:50:04;;;;;;;0.75;0.50;;;15.40;53.10;;;;;;5015119;28;20022;-69
2021/06/16 09:52:34;;;;;;;0.45;0.20;;;15.40;52.20;;;;;;5014785;28;20044;-69
2021/06/16 09:55:20;;;;;;;2.47;0.45;;;15.30;52.10;;;;;;5015159;28;20117;-69
2021/06/16 09:58:07;;;;;;;0.50;0.20;;;15.30;53.30;;;;;;5015078;28;20036;-69
2021/06/16 10:00:48;;;;;;;2.05;0.40;;;15.40;52.80;;;;;;4997175;28;20037;-70
2021/06/16 10:03:21;;;;;;;8.55;0.73;;;15.50;55.50;;;;;;5014671;28;20030;-69
2021/06/16 10:06:19;;;;;;;0.30;0.22;;;15.80;55.90;;;;;;5014991;28;20068;-72
2021/06/16 10:08:47;;;;;;;5.07;0.55;;;15.70;51.00;;;;;;4971253;28;20042;-70
2021/06/16 10:11:15;;;;;;;2.72;0.30;;;15.60;51.20;;;;;;5014629;28;20532;-71
2021/06/16 10:13:42;;;;;;;2.20;0.25;;;15.60;54.30;;;;;;5014840;28;20109;-69
2021/06/16 10:16:09;;;;;;;0.20;0.20;;;15.50;51.40;;;;;;5014902;28;20040;-69
2021/06/16 10:18:40;;;;;;;3.00;0.20;;;15.50;52.90;;;;;;5008895;28;20388;-70
2021/06/16 10:21:08;;;;;;;3.05;0.20;;;15.60;54.20;;;;;;5014718;28;20032;-78
2021/06/16 10:23:34;;;;;;;0.65;0.30;;;15.70;54.40;;;;;;5014480;28;20431;-78
2021/06/16 10:26:08;;;;;;;0.40;0.20;;;15.60;52.90;;;;;;5013935;28;20077;-73
2021/06/16 10:28:41;;;;;;;0.93;0.20;;;15.60;52.90;;;;;;4995490;28;20109;-73
2021/06/16 10:31:08;;;;;;;0.43;0.20;;;15.80;54.40;;;;;;5013822;28;20029;-79
2021/06/16 10:33:39;;;;;;;0.20;0.20;;;15.80;52.30;;;;;;5013466;28;20032;-81
2021/06/16 10:36:07;;;;;;;0.32;0.30;;;15.70;53.00;;;;;;4994493;28;20031;-78
2021/06/16 10:38:33;;;;;;;1.92;0.30;;;15.70;53.20;;;;;;4994922;28;20129;-80
2021/06/16 10:40:59;;;;;;;2.65;0.25;;;15.60;53.40;;;;;;4977267;28;20538;-74
2021/06/16 10:43:36;;;;;;;0.93;0.20;;;15.50;53.80;;;;;;4994615;28;20043;-71
2021/06/16 10:46:13;;;;;;;0.60;0.30;;;15.60;55.30;;;;;;4997073;28;20471;-70
2021/06/16 10:48:45;;;;;;;1.25;0.20;;;15.80;54.00;;;;;;4994804;28;20050;-73
2021/06/16 10:51:31;;;;;;;0.50;0.30;;;15.80;53.80;;;;;;4994288;28;20026;-70
2021/06/16 10:54:14;;;;;;;1.48;0.50;;;15.90;53.70;;;;;;4994223;28;20142;-70
2021/06/16 10:56:45;;;;;;;0.45;0.30;;;15.90;54.00;;;;;;4994416;28;20030;-73
2021/06/16 10:59:12;;;;;;;2.53;0.30;;;16.10;54.30;;;;;;4994479;28;20124;-73
2021/06/16 11:01:50;;;;;;;0.38;0.30;;;16.10;53.40;;;;;;4994268;28;20027;-73
2021/06/16 11:04:30;;;;;;;0.65;0.40;;;16.10;53.00;;;;;;4994172;28;20552;-73
2021/06/16 11:06:57;;;;;;;0.73;0.30;;;16.20;53.90;;;;;;4994375;28;20019;-73
2021/06/16 11:09:50;;;;;;;0.25;0.25;;;16.30;53.90;;;;;;4994140;28;20529;-73
2021/06/16 11:12:16;;;;;;;1.20;0.20;;;16.30;52.90;;;;;;4994001;28;20069;-72
2021/06/16 11:14:47;;;;;;;1.65;0.35;;;16.30;51.60;;;;;;4994119;28;20054;-73
2021/06/16 11:17:33;;;;;;;2.17;0.30;;;16.30;51.20;;;;;;4994230;28;20081;-73
2021/06/16 11:20:01;;;;;;;1.10;0.40;;;16.30;51.40;;;;;;4994188;28;20081;-73
2021/06/16 11:22:28;;;;;;;0.20;0.20;;;16.20;51.70;;;;;;4994033;28;20106;-74
2021/06/16 11:25:21;;;;;;;1.10;0.35;;;16.20;51.60;;;;;;4993798;28;20511;-73
2021/06/16 11:27:59;;;;;;;0.32;0.32;;;16.20;51.00;;;;;;4994104;28;20034;-73
2021/06/16 11:30:42;;;;;;;0.40;0.30;;;16.20;50.80;;;;;;4993665;28;20030;-73
2021/06/16 11:35:49;;;;;;;1.00;0.50;;;16.30;51.60;;;;;;4998039;28;20486;-73
2021/06/16 11:38:18;;;;;;;1.13;0.70;;;16.30;52.00;;;;;;5013055;28;20045;-73
2021/06/16 11:41:06;;;;;;;1.02;0.60;;;16.30;51.90;;;;;;5013396;28;20354;-70
2021/06/16 11:43:34;;;;;;;1.25;0.47;;;16.30;51.50;;;;;;5007437;28;20105;-69
2021/06/16 11:46:02;;;;;;;2.40;0.50;;;16.40;51.60;;;;;;5008765;28;20076;-70
2021/06/16 11:48:28;;;;;;;0.57;0.40;;;16.40;52.20;;;;;;5009879;28;20030;-69
2021/06/16 11:50:53;;;;;;;2.20;0.30;;;16.50;51.90;;;;;;5012761;28;20052;-69
2021/06/16 11:53:32;;;;;;;0.30;0.30;;;16.60;51.20;;;;;;5012420;28;20054;-70
2021/06/16 11:56:03;;;;;;;0.30;0.30;;;16.70;51.20;;;;;;5013166;28;20030;-69
2021/06/16 11:58:40;;;;;;;0.73;0.35;;;16.70;50.60;;;;;;5012602;28;20064;-69
2021/06/16 12:01:09;;;;;;;0.40;0.30;;;16.60;50.10;;;;;;4995124;28;20433;-69
2021/06/16 12:03:36;;;;;;;0.80;0.32;;;16.50;50.40;;;;;;5012234;28;20037;-72
2021/06/16 12:06:11;;;;;;;7.20;0.50;;;16.40;51.20;;;;;;4995126;28;20048;-71
2021/06/16 12:08:37;;;;;;;1.13;0.35;;;16.50;52.50;;;;;;5012986;28;20386;-70
2021/06/16 12:11:25;;;;;;;2.15;0.30;;;16.60;52.20;;;;;;5012577;28;20381;-70
2021/06/16 12:14:07;;;;;;;0.30;0.30;;;16.60;50.70;;;;;;5012672;28;20037;-70
2021/06/16 12:16:41;;;;;;;0.50;0.45;;;16.50;50.50;;;;;;5012358;28;20033;-72
2021/06/16 12:19:17;;;;;;;1.30;0.32;;;16.50;50.70;;;;;;5012793;28;20030;-73
2021/06/16 12:21:52;;;;;;;0.30;0.30;;;16.80;57.60;;;;;;5012446;28;20478;-72
2021/06/16 12:24:20;;;;;;;0.63;0.30;;;17.30;53.90;;;;;;5012666;28;20036;-72
2021/06/16 12:27:09;;;;;;;2.63;0.30;;;17.20;50.90;;;;;;5012641;28;20126;-72
2021/06/16 12:29:38;;;;;;;0.25;0.20;;;17.00;50.70;;;;;;5012483;28;20030;-71
2021/06/16 12:32:07;;;;;;;0.52;0.20;;;16.80;50.80;;;;;;5012493;28;20125;-72
2021/06/16 12:37:13;;;;;;;0.50;0.30;;;16.60;51.00;;;;;;5012552;28;20041;-72
2021/06/16 12:40:02;;;;;;;1.95;0.20;;;16.60;51.30;;;;;;5012273;28;20098;-72
2021/06/16 12:42:37;;;;;;;1.10;0.30;;;16.70;52.30;;;;;;5012129;28;20500;-72
2021/06/16 12:45:15;;;;;;;1.95;0.28;;;16.70;52.10;;;;;;5012130;28;20033;-69
2021/06/16 12:47:40;;;;;;;18.98;0.80;;;16.70;53.30;;;;;;5019810;28;20017;-70
2021/06/16 12:50:06;;;;;;;0.98;0.40;;;16.80;51.40;;;;;;5032101;28;20034;-70
2021/06/16 12:52:34;;;;;;;0.65;0.20;;;16.60;50.10;;;;;;5031429;28;20041;-70
2021/06/16 12:55:12;;;;;;;1.55;0.20;;;16.40;51.00;;;;;;5031764;28;20025;-70
2021/06/16 12:58:01;;;;;;;0.30;0.30;;;16.20;51.40;;;;;;5031698;28;20057;-71
2021/06/16 13:00:29;;;;;;;4.60;0.40;;;16.20;51.50;;;;;;5031811;28;20030;-71
2021/06/16 13:02:55;;;;;;;0.25;0.20;;;16.10;51.50;;;;;;5032042;28;20095;-71
2021/06/16 13:05:26;;;;;;;3.92;0.40;;;16.00;52.10;;;;;;5031799;28;20056;-71
2021/06/16 13:08:02;;;;;;;0.20;0.20;;;15.90;52.50;;;;;;5031724;28;20021;-71
2021/06/16 13:10:39;;;;;;;1.85;0.17;;;15.90;52.80;;;;;;5031623;28;20070;-72
2021/06/16 13:13:16;;;;;;;1.25;0.20;;;15.80;53.20;;;;;;5031628;28;20037;-71
2021/06/16 13:15:45;;;;;;;0.95;0.20;;;15.70;53.50;;;;;;5034201;28;20377;-71
2021/06/16 13:18:17;;;;;;;0.22;0.20;;;15.70;53.60;;;;;;5035544;28;20112;-71
2021/06/16 13:20:44;;;;;;;0.73;0.40;;;15.60;54.00;;;;;;5035808;28;20061;-71
2021/06/16 13:23:16;;;;;;;0.70;0.30;;;15.60;53.90;;;;;;5035524;28;20052;-71
2021/06/16 13:25:43;;;;;;;0.32;0.20;;;15.50;53.90;;;;;;5034079;28;20029;-72
2021/06/16 13:28:25;;;;;;;0.88;0.22;;;15.70;56.10;;;;;;5035714;28;20025;-72
2021/06/16 13:30:52;;;;;;;0.20;0.20;;;15.80;53.70;;;;;;5035350;28;20362;-72
2021/06/16 13:33:28;;;;;;;1.85;0.30;;;15.80;54.10;;;;;;5035239;28;20022;-72
2021/06/16 13:35:54;;;;;;;1.95;0.47;;;15.70;54.10;;;;;;5035206;28;20022;-69
2021/06/16 13:38:20;;;;;;;2.17;0.30;;;15.80;54.40;;;;;;5035163;28;20033;-70